Latest Weather Observations for Scottsdale

IDT60801

Issued at 5:05 pm EDT Friday 31 October 2014 (issued every 30 minutes, with the page automatically refreshed every 10 minutes)

About weather observations | Map of weather stations | Latest weather observations for TAS | Other Formats
Station Details ID: 091219 Name: SCOTTSDALE (WEST MINSTONE ROAD) Lat: -41.17 Lon: 147.49 Height: 197.5 m
Data from the previous 72 hours. | See also: Recent months at Scottsdale
Date/Time
EDT
Temp
°C
App
Temp
°C
Dew
Point
Rel
Hum
%
Delta-T
°C
Wind Press
QNH
hPa
Press
MSL
hPa
Rain
since 9 am
mm
Dir
 
Spd
km/h
Gust
km/h
Spd
kts
Gust
kts
31/05:00pm 15.6 14.4 10.4 71 2.8 NNE 7 13 4 7 1002.8 - 0.2
31/04:30pm 14.5 12.7 10.8 78 2.0 N 11 17 6 9 1003.6 - 0.2
31/04:00pm 14.6 13.1 10.7 77 2.1 N 9 13 5 7 1003.9 - 0.2
31/03:30pm 14.6 12.8 10.9 78 2.0 N 11 17 6 9 1004.1 - 0.2
31/03:00pm 14.1 12.3 10.7 80 1.8 NNW 11 15 6 8 1004.5 1004.5 0.2
31/02:30pm 14.0 12.7 11.4 84 1.4 NNW 9 19 5 10 1004.9 - 0.2
31/02:00pm 13.3 12.0 11.1 86 1.2 NW 9 13 5 7 1005.5 - 0.2
31/01:30pm 12.7 11.0 11.2 91 0.8 WNW 11 20 6 11 1006.1 - 0.2
31/01:00pm 11.9 10.5 11.0 94 0.5 NW 9 15 5 8 1006.3 - 0.2
31/12:30pm 11.7 10.2 10.7 94 0.5 NW 9 15 5 8 1006.6 - 0.2
31/12:00pm 11.9 9.4 9.8 87 1.1 WNW 13 20 7 11 1007.0 1007.1 0.2
31/11:30am 12.6 10.2 9.9 83 1.4 NW 13 20 7 11 1007.2 - 0.0
31/11:00am 12.2 8.8 9.1 81 1.6 NW 17 26 9 14 1007.9 - 0.0
31/10:30am 12.0 8.9 9.0 82 1.5 NW 15 20 8 11 1007.9 - 0.0
31/10:00am 12.0 9.9 8.4 78 1.8 WNW 9 15 5 8 1007.7 - 0.0
31/09:30am 12.3 10.3 8.7 79 1.8 W 9 15 5 8 1008.1 - 0.0
31/09:00am 11.8 9.9 9.2 84 1.3 NW 9 15 5 8 1008.6 1008.6 0.0
31/08:30am 10.8 8.6 9.2 90 0.8 WNW 11 15 6 8 1008.6 - 0.0
31/08:00am 10.3 8.5 9.3 93 0.5 W 9 15 5 8 1008.4 - 0.0
31/07:30am 10.4 8.5 9.2 92 0.6 WNW 9 11 5 6 1008.5 - 0.0
31/07:00am 10.0 8.5 9.0 93 0.5 WNW 7 15 4 8 1008.5 - 0.0
31/06:30am 9.8 8.1 8.4 91 0.7 NW 7 11 4 6 1008.6 - 0.0
31/06:00am 9.5 9.1 8.3 92 0.6 CALM 0 0 0 0 1008.3 1008.3 0.0
31/05:30am 9.6 7.9 8.2 91 0.7 NNW 7 13 4 7 1008.4 - 0.0
31/05:00am 9.3 7.9 8.7 96 0.3 N 6 9 3 5 1008.4 - 0.0
31/04:30am 9.4 7.9 8.6 95 0.4 WNW 6 7 3 4 1008.5 - 0.0
31/04:00am 8.9 7.2 8.3 96 0.3 NNW 7 11 4 6 1008.8 - 0.0
31/03:30am 9.8 7.8 8.6 92 0.6 NW 9 13 5 7 1009.1 - 0.0
31/03:00am 10.2 7.8 8.8 91 0.7 WNW 11 15 6 8 1009.1 1009.2 0.0
31/02:30am 10.3 7.5 8.7 90 0.8 WNW 13 17 7 9 1009.2 - 0.0
31/02:00am 10.2 7.8 8.8 91 0.7 W 11 19 6 10 1009.5 - 0.0
31/01:30am 10.1 7.7 8.5 90 0.8 W 11 17 6 9 1009.7 - 0.0
31/01:00am 9.8 8.1 8.4 91 0.7 WNW 7 11 4 6 1009.9 - 0.0
31/12:30am 9.6 7.9 8.2 91 0.7 NW 7 11 4 6 1010.1 - 0.0
31/12:00am 10.7 8.6 8.3 85 1.2 WNW 9 13 5 7 1010.1 1010.2 0.0
 
Date/Time
EDT
Temp
°C
App
Temp
°C
Dew
Point
Rel
Hum
%
Delta-T
°C
Wind Press
QNH
hPa
Press
MSL
hPa
Rain
since 9 am
mm
Dir
 
Spd
km/h
Gust
km/h
Spd
kts
Gust
kts
30/11:30pm 10.6 9.0 8.6 87 1.0 NW 7 15 4 8 1010.3 - 0.0
30/11:00pm 10.3 8.7 8.9 91 0.7 NNW 7 11 4 6 1010.6 - 0.0
30/10:30pm 11.0 9.5 9.0 87 1.0 NW 7 13 4 7 1010.6 - 0.0
30/10:00pm 11.4 9.9 9.2 86 1.1 NW 7 9 4 5 1010.4 - 0.0
30/09:30pm 11.8 10.5 9.2 84 1.3 NNW 6 11 3 6 1010.3 - 0.0
30/09:00pm 11.8 8.4 9.2 84 1.3 WNW 17 22 9 12 1010.1 1010.1 0.0
30/08:30pm 12.1 8.6 8.9 81 1.6 WNW 17 24 9 13 1009.7 - 0.0
30/08:00pm 12.4 9.0 9.1 80 1.7 NW 17 24 9 13 1009.6 - 0.0
30/07:30pm 13.0 10.0 9.3 78 1.9 NW 15 22 8 12 1009.3 - 0.0
30/07:00pm 13.5 9.7 9.0 74 2.3 WNW 19 28 10 15 1009.1 - 0.0
30/06:30pm 14.1 10.7 9.0 71 2.6 WNW 17 33 9 18 1009.0 - 0.0
30/06:00pm 14.5 10.5 9.1 70 2.8 WNW 20 28 11 15 1008.9 1009.0 0.0
30/05:30pm 14.6 10.7 9.4 71 2.7 WNW 20 32 11 17 1008.7 - 0.0
30/05:00pm 15.0 11.7 9.7 70 2.8 WNW 17 26 9 14 1008.6 - 0.0
30/04:30pm 15.7 11.4 9.4 66 3.3 WNW 22 33 12 18 1008.3 - 0.0
30/04:00pm 15.2 10.5 9.2 67 3.1 WNW 24 33 13 18 1008.5 - 0.0
30/03:30pm 15.6 11.5 8.8 64 3.5 WNW 20 32 11 17 1008.1 - 0.0
30/03:00pm 15.9 12.0 9.6 66 3.3 NW 20 35 11 19 1008.4 1008.4 0.0
30/02:30pm 16.2 12.2 9.1 63 3.7 WNW 20 32 11 17 1008.5 - 0.0
30/02:00pm 15.6 11.7 9.3 66 3.3 NW 20 33 11 18 1008.6 - 0.0
30/01:30pm 15.2 11.1 8.6 64 3.4 NW 20 32 11 17 1008.7 - 0.0
30/01:00pm 15.8 11.9 8.6 62 3.7 WNW 19 30 10 16 1008.9 - 0.0
30/12:30pm 15.8 11.7 8.6 62 3.7 WNW 20 28 11 15 1008.8 - 0.0
30/12:00pm 15.7 11.6 8.7 63 3.6 WNW 20 32 11 17 1009.2 1009.3 0.0
30/11:30am 15.3 11.4 8.7 64 3.4 WNW 19 33 10 18 1009.3 - 0.0
30/11:00am 14.4 9.8 8.1 66 3.2 WNW 22 37 12 20 1009.6 - 0.0
30/10:30am 14.8 11.2 8.3 65 3.3 WNW 17 28 9 15 1009.7 - 0.0
30/10:00am 13.8 9.8 8.3 69 2.8 W 19 32 10 17 1009.9 - 0.0
30/09:30am 12.9 9.2 7.9 71 2.5 WNW 17 26 9 14 1009.9 - 0.0
30/09:00am 12.7 9.5 8.3 74 2.2 W 15 30 8 16 1009.9 1010.1 0.0
30/08:30am 11.3 8.1 8.3 82 1.5 W 15 24 8 13 1010.0 - 0.0
30/08:00am 10.3 8.2 8.1 86 1.1 W 9 17 5 9 1010.0 - 0.0
30/07:30am 9.7 7.9 8.1 90 0.8 NW 7 15 4 8 1009.9 - 0.0
30/07:00am 9.5 8.3 7.9 90 0.8 NNW 4 7 2 4 1009.7 - 0.0
30/06:30am 9.2 7.6 7.8 91 0.7 NNW 6 9 3 5 1009.3 - 0.0
30/06:00am 9.1 7.3 7.9 92 0.6 NNW 7 13 4 7 1009.3 1009.4 0.0
30/05:30am 8.9 7.1 7.9 93 0.5 N 7 11 4 6 1008.9 - 0.0
30/05:00am 8.5 6.6 7.5 93 0.5 N 7 9 4 5 1009.0 - 0.0
30/04:30am 8.9 7.2 7.7 92 0.6 N 6 7 3 4 1009.1 - 0.0
30/04:00am 9.4 6.7 7.5 88 0.9 NW 11 19 6 10 1009.3 - 0.0
30/03:30am 9.9 7.4 8.1 88 0.9 NW 11 17 6 9 1009.3 - 0.0
30/03:00am 10.2 7.8 8.6 90 0.8 NW 11 19 6 10 1009.2 1009.3 0.0
30/02:30am 10.0 7.7 9.0 93 0.5 NW 11 19 6 10 1009.1 - 0.0
30/02:00am 10.5 8.6 8.9 90 0.8 NW 9 17 5 9 1009.4 - 0.0
30/01:30am 10.8 8.2 9.2 90 0.8 NW 13 19 7 10 1009.6 - 0.0
30/01:00am 10.9 9.1 9.3 90 0.8 WNW 9 15 5 8 1010.0 - 0.0
30/12:30am 10.9 9.1 9.3 90 0.8 WNW 9 17 5 9 1010.3 - 0.0
30/12:00am 10.9 8.7 9.3 90 0.8 NW 11 15 6 8 1010.5 1010.6 0.0
 
Date/Time
EDT
Temp
°C
App
Temp
°C
Dew
Point
Rel
Hum
%
Delta-T
°C
Wind Press
QNH
hPa
Press
MSL
hPa
Rain
since 9 am
mm
Dir
 
Spd
km/h
Gust
km/h
Spd
kts
Gust
kts
29/11:30pm 11.1 8.4 9.1 87 1.0 WNW 13 20 7 11 1010.6 - 0.0
29/11:00pm 11.3 7.9 9.3 87 1.0 NW 17 24 9 13 1010.8 - 0.0
29/10:30pm 11.4 8.4 9.2 86 1.1 WNW 15 24 8 13 1010.9 - 0.0
29/10:00pm 11.4 8.0 9.2 86 1.1 WNW 17 26 9 14 1010.8 - 0.0
29/09:30pm 11.4 8.8 9.2 86 1.1 NW 13 24 7 13 1010.9 - 0.0
29/09:00pm 11.6 8.9 9.0 84 1.3 NW 13 20 7 11 1010.9 1011.0 0.0
29/08:30pm 11.9 8.8 8.9 82 1.5 NW 15 32 8 17 1010.7 - 0.0
29/08:00pm 12.3 9.2 8.9 80 1.7 NW 15 24 8 13 1010.5 - 0.0
29/07:30pm 12.6 9.9 8.9 78 1.9 NW 13 24 7 13 1010.4 - 0.0
29/07:00pm 13.0 9.5 8.9 76 2.1 NW 17 26 9 14 1010.1 - 0.0
29/06:30pm 13.7 10.1 8.4 70 2.7 NW 17 26 9 14 1009.9 - 0.0
29/06:00pm 13.8 9.8 8.3 69 2.8 NW 19 32 10 17 1009.9 1010.0 0.0
29/05:30pm 14.2 11.3 8.1 66 3.1 NW 13 32 7 17 1009.8 - 0.0
29/05:00pm 14.8 11.2 8.3 65 3.3 WNW 17 28 9 15 1009.9 - 0.0
29/04:30pm 14.3 10.7 8.4 67 3.0 WNW 17 30 9 16 1010.0 - 0.0
29/04:00pm 14.1 10.5 8.4 68 2.9 WNW 17 35 9 19 1010.4 - 0.0
29/03:30pm 13.8 9.7 8.0 68 2.9 WNW 19 33 10 18 1010.6 - 0.0
29/03:00pm 13.8 9.1 7.8 67 3.0 WNW 22 41 12 22 1011.0 1011.1 0.0
29/02:30pm 13.9 9.1 7.2 64 3.3 WNW 22 35 12 19 1011.2 - 0.0
29/02:00pm 13.6 9.0 6.6 62 3.4 WNW 20 39 11 21 1011.4 - 0.0
29/01:30pm 13.9 8.4 6.0 59 3.8 WNW 24 41 13 22 1011.4 - 0.0
29/01:00pm 13.9 9.1 5.8 58 3.9 WNW 20 43 11 23 1011.6 - 0.0
29/12:30pm 12.8 7.7 5.9 63 3.3 WNW 22 33 12 18 1012.0 - 0.0
29/12:00pm 13.1 8.4 6.2 63 3.3 W 20 32 11 17 1012.1 1012.2 0.0
29/11:30am 13.2 8.4 5.6 60 3.6 WNW 20 33 11 18 1012.4 - 0.0
29/11:00am 13.2 7.9 5.1 58 3.8 W 22 35 12 19 1012.7 - 0.0
29/10:30am 12.0 6.5 4.1 58 3.6 W 22 35 12 19 1013.0 - 0.0
29/10:00am 11.6 6.1 4.1 60 3.4 W 22 39 12 21 1013.0 - 0.0
29/09:30am 11.2 6.3 3.9 61 3.3 W 19 32 10 17 1013.1 - 0.0
29/09:00am 10.4 7.1 4.4 66 2.7 W 11 22 6 12 1012.9 1012.9 0.0
29/08:30am 9.3 4.9 2.8 64 2.8 W 15 20 8 11 1012.7 - 0.0
29/08:00am 8.7 4.6 2.1 63 2.8 W 13 19 7 10 1012.7 - 0.0
29/07:30am 7.2 4.9 3.0 74 1.8 ENE 4 13 2 7 1012.4 - 0.0
29/07:00am 6.7 3.3 1.8 71 2.0 WNW 9 20 5 11 1012.4 - 0.0
29/06:30am 7.0 1.8 0.2 62 2.7 W 17 30 9 16 1012.0 - 0.0
29/06:00am 6.1 1.3 0.0 65 2.4 W 15 28 8 15 1011.5 1011.6 0.0
29/05:30am 5.6 1.1 -0.1 67 2.2 W 13 17 7 9 1011.1 - 0.0
29/05:00am 5.5 1.1 0.4 70 2.0 WNW 13 19 7 10 1010.7 - 0.0
29/04:30am 5.8 0.7 0.5 69 2.1 WNW 17 20 9 11 1010.2 - 0.0
29/04:00am 5.9 1.5 0.6 69 2.1 WNW 13 15 7 8 1009.9 - 0.0
29/03:30am 5.9 1.5 0.6 69 2.1 WNW 13 15 7 8 1009.7 - 0.0
29/03:00am 6.0 1.3 0.7 69 2.1 WNW 15 17 8 9 1009.4 1009.5 0.0
29/02:30am 5.7 1.3 0.4 69 2.1 NNW 13 17 7 9 1009.2 - 0.0
29/02:00am 5.3 1.7 0.7 72 1.8 WNW 9 11 5 6 1008.7 - 0.0
29/01:30am 6.2 2.1 0.1 65 2.4 WNW 11 19 6 10 1008.4 - 0.0
29/01:00am 6.6 2.1 -0.3 61 2.7 NW 13 20 7 11 1008.2 - 0.0
29/12:30am 6.9 1.6 -0.5 59 2.9 W 17 30 9 16 1007.9 - 0.0
29/12:00am 6.5 2.8 -0.1 63 2.6 W 9 13 5 7 1007.9 1007.9 0.0
 
Date/Time
EDT
Temp
°C
App
Temp
°C
Dew
Point
Rel
Hum
%
Delta-T
°C
Wind Press
QNH
hPa
Press
MSL
hPa
Rain
since 9 am
mm
Dir
 
Spd
km/h
Gust
km/h
Spd
kts
Gust
kts
28/11:30pm 6.6 1.3 -0.3 61 2.7 W 17 26 9 14 1007.3 - 0.0
28/11:00pm 6.9 1.2 -0.5 59 2.9 W 19 28 10 15 1006.8 - 0.0
28/10:30pm 6.8 1.1 -0.7 59 2.9 W 19 33 10 18 1006.9 - 0.0
28/10:00pm 7.4 1.4 -1.5 53 3.4 W 20 39 11 21 1006.6 - 0.0
28/09:30pm 8.0 1.2 -2.0 49 3.8 W 24 43 13 23 1006.3 - 0.0
28/09:00pm 8.2 0.7 -1.3 51 3.7 W 28 39 15 21 1005.7 1005.8 0.0
28/08:31pm 8.4 0.5 -1.4 50 3.8 W 30 48 16 26 1005.2 - 0.0
28/08:30pm 8.4 0.1 -1.4 50 3.8 W 32 48 17 26 1005.2 - 0.0
28/08:26pm 8.6 1.0 -1.8 48 4.0 W 28 46 15 25 1005.1 - 0.0
28/08:00pm 8.7 2.2 -2.3 46 4.2 W 22 37 12 20 1004.7 - 0.0
28/07:30pm 9.0 0.9 -2.9 43 4.5 W 30 56 16 30 1003.7 - 0.0
28/07:00pm 9.8 -0.4 -3.1 40 4.9 W 41 69 22 37 1003.1 - 0.0
28/06:48pm 9.9 0.3 -1.5 45 4.5 W 39 76 21 41 1003.0 - 0.0
28/06:38pm 10.1 -3.0 -1.9 43 4.7 W 57 82 31 44 1002.4 - 0.0
28/06:36pm 10.2 1.4 -1.4 44 4.6 W 35 76 19 41 1002.6 - 0.0
28/06:31pm 10.3 2.0 -1.6 43 4.7 W 32 57 17 31 1002.6 - 0.0
28/06:30pm 10.2 2.3 -1.7 43 4.7 W 30 48 16 26 1002.6 - 0.0
28/06:00pm 11.1 1.9 -1.7 41 5.1 W 37 65 20 35 1001.8 1001.9 0.0
28/05:42pm 11.4 4.1 -0.2 44 4.8 W 28 54 15 29 1001.5 - 0.0
28/05:30pm 11.1 4.2 0.3 47 4.5 WSW 26 50 14 27 1001.4 - 0.0

Other Formats:

Comma delimited format used in spreadsheet applications
http://www.bom.gov.au/fwo/IDT60801/IDT60801.94972.axf

JavaScript Object Notation format (JSON) in row-major order
http://www.bom.gov.au/fwo/IDT60801/IDT60801.94972.json